createdAt,value
2018-12-07T00:06:45.000Z,42.357
2018-12-07T00:16:45.000Z,42.418
2018-12-07T00:26:46.000Z,42.416
2018-12-07T00:36:46.000Z,42.518
2018-12-07T00:46:46.000Z,42.375
2018-12-07T00:56:46.000Z,42.963
2018-12-07T01:06:46.000Z,42.98
2018-12-07T01:16:46.000Z,43.075
2018-12-07T01:26:46.000Z,42.8
2018-12-07T01:36:46.000Z,42.788
2018-12-07T01:46:46.000Z,42.913
2018-12-07T01:56:46.000Z,43.083
2018-12-07T02:06:46.000Z,43.111
2018-12-07T02:16:46.000Z,43.215
2018-12-07T02:26:46.000Z,43.351
2018-12-07T02:36:46.000Z,43.371
2018-12-07T02:46:46.000Z,43.475
2018-12-07T02:56:46.000Z,43.46
2018-12-07T03:06:46.000Z,43.575
2018-12-07T03:16:46.000Z,43.637
2018-12-07T03:26:46.000Z,43.677
2018-12-07T03:36:46.000Z,43.685
2018-12-07T03:46:46.000Z,43.748
2018-12-07T03:56:46.000Z,43.81
2018-12-07T04:06:46.000Z,43.849
2018-12-07T04:16:46.000Z,43.89
2018-12-07T04:26:46.000Z,43.92
2018-12-07T04:36:46.000Z,44.048
2018-12-07T04:46:46.000Z,44.057
2018-12-07T04:56:46.000Z,43.904
2018-12-07T05:06:46.000Z,43.861
2018-12-07T05:16:46.000Z,43.829
2018-12-07T05:26:46.000Z,43.827
2018-12-07T05:36:46.000Z,43.581
2018-12-07T05:46:46.000Z,43.45
2018-12-07T05:56:46.000Z,43.323
2018-12-07T06:06:46.000Z,43.248
2018-12-07T06:16:46.000Z,43.182
2018-12-07T06:26:46.000Z,43.117
2018-12-07T06:36:46.000Z,43.064
2018-12-07T06:46:46.000Z,42.88
2018-12-07T06:56:46.000Z,42.924
2018-12-07T07:06:46.000Z,42.957
2018-12-07T07:16:46.000Z,43.032
2018-12-07T07:26:46.000Z,42.957
2018-12-07T07:36:46.000Z,42.97
2018-12-07T07:46:46.000Z,42.951
2018-12-07T07:56:46.000Z,43.15
2018-12-07T08:06:46.000Z,43.186
2018-12-07T08:16:46.000Z,43.341
2018-12-07T08:26:46.000Z,43.952
2018-12-07T08:36:47.000Z,43.478
2018-12-07T08:46:47.000Z,43.448
2018-12-07T08:56:47.000Z,43.363
2018-12-07T09:06:47.000Z,43.354
2018-12-07T09:16:47.000Z,43.139
2018-12-07T09:26:47.000Z,43.086
2018-12-07T09:36:47.000Z,42.977
2018-12-07T09:46:47.000Z,42.88
2018-12-07T09:56:47.000Z,42.937
2018-12-07T10:06:47.000Z,42.928
2018-12-07T10:16:47.000Z,42.831
2018-12-07T10:26:47.000Z,42.755
2018-12-07T10:36:47.000Z,42.734
2018-12-07T10:46:47.000Z,42.443
2018-12-07T10:56:47.000Z,42.464
2018-12-07T11:06:47.000Z,42.378
2018-12-07T11:16:47.000Z,42.003
2018-12-07T11:26:47.000Z,42.511
2018-12-07T11:36:47.000Z,42.62
2018-12-07T11:46:47.000Z,42.632
2018-12-07T11:56:47.000Z,42.469
2018-12-07T12:06:47.000Z,42.361
2018-12-07T12:16:47.000Z,42.426
2018-12-07T12:26:47.000Z,42.427
2018-12-07T12:36:48.000Z,42.525
2018-12-07T12:46:47.000Z,42.902
2018-12-07T12:56:47.000Z,43.763
2018-12-07T13:06:47.000Z,43.666
2018-12-07T13:16:47.000Z,43.375
2018-12-07T13:26:47.000Z,43.288
2018-12-07T13:36:47.000Z,42.954
2018-12-07T13:46:47.000Z,42.966
2018-12-07T13:56:47.000Z,42.599
2018-12-07T14:06:47.000Z,42.962
2018-12-07T14:16:47.000Z,42.381
2018-12-07T14:26:47.000Z,42.401
2018-12-07T14:36:47.000Z,42.313
2018-12-07T14:46:47.000Z,42.323
2018-12-07T15:06:47.000Z,42.019
2018-12-07T15:16:47.000Z,42.179
2018-12-07T15:26:47.000Z,42.071
2018-12-07T15:36:47.000Z,42.263
2018-12-07T15:56:47.000Z,41.895
2018-12-07T16:26:47.000Z,42.097
2018-12-07T16:46:47.000Z,42.095
2018-12-07T17:06:48.000Z,41.771
2018-12-07T17:16:48.000Z,42.319
2018-12-07T17:26:48.000Z,42.307
2018-12-07T17:36:48.000Z,42.221
2018-12-07T17:46:48.000Z,42.263
2018-12-07T17:56:48.000Z,42.176
2018-12-07T18:06:48.000Z,41.933
2018-12-07T18:16:48.000Z,41.333
2018-12-07T18:26:49.000Z,41.969
2018-12-07T18:36:48.000Z,41.958
2018-12-07T18:46:50.000Z,42.284
2018-12-07T18:56:48.000Z,42.477
2018-12-07T19:06:48.000Z,42.649
2018-12-07T19:16:48.000Z,42.692
2018-12-07T19:26:48.000Z,42.649
2018-12-07T19:36:48.000Z,42.798
2018-12-07T19:46:48.000Z,42.777
2018-12-07T19:56:48.000Z,42.84
2018-12-07T20:06:48.000Z,42.796
2018-12-07T20:16:48.000Z,42.576
2018-12-07T20:26:48.000Z,42.023
2018-12-07T20:36:51.000Z,42.252
2018-12-07T20:46:48.000Z,42.255
2018-12-07T20:56:51.000Z,42.299
2018-12-07T21:06:48.000Z,42.494
2018-12-07T21:16:48.000Z,42.462
2018-12-07T21:26:48.000Z,42.505
2018-12-07T21:36:48.000Z,42.495
2018-12-07T21:46:48.000Z,42.581
2018-12-07T21:56:48.000Z,42.668
2018-12-07T22:06:48.000Z,42.767
2018-12-07T22:16:48.000Z,42.66
2018-12-07T22:26:48.000Z,42.798
2018-12-07T22:36:48.000Z,42.819
2018-12-07T22:46:51.000Z,42.816
2018-12-07T22:56:48.000Z,42.696
2018-12-07T23:06:48.000Z,42.962
2018-12-07T23:16:48.000Z,42.831
2018-12-07T23:26:48.000Z,42.721
2018-12-07T23:36:48.000Z,42.556
2018-12-07T23:46:48.000Z,42.757
2018-12-07T23:56:48.000Z,42.958
